Aviation Digital Data Service (ADDS)

Output produced by METARs form (2336 UTC 17 September 2014)
found at http://www.aviationweather.gov/adds/metars/
 
METAR text: KCCU 172316Z AUTO 28010KT 10SM CLR 16/M03 A3053 RMK AO2
Conditions at: KCCU (RED CLIFF PASS , CO, US) observed 2316 UTC 17 September 2014
Temperature: 16.0°C (61°F)
Dewpoint: -3.0°C (27°F) [RH = 27%]
Pressure (altimeter): 30.53 inches Hg (1033.9 mb)
Winds: from the W (280 degrees) at 12 MPH (10 knots; 5.2 m/s)
Visibility: 10 or more miles (16+ km)
Ceiling: at least 12,000 feet AGL
Clouds: sky clear below 12,000 feet AGL
Weather: automated observation with no human augmentation;
there may or may not be significant weather present at this time